Ash Ridge, Ohio
Current Conditions -  °F | °C
As of 5:55 AM on Sunday 23 Nov 2014 (Local Time) from KFGX Reporting Station
Overcast Overcast  
Wind Chill: 10°   Ceiling: 3500
Heat Index: 10°   Visibility: 10mi
Dew Point:   Wind: 7mph
Humidity: 61%   Direction: 160°SSE
Pressure: 30.04"   Gusts: NA
Location:  38.8698°N, 83.9081°W
Report Text: KFGX 231055Z AUTO 16006KT 10SM BKN035 BKN044 OVC100 10/03 A3004 RMK AO2 T01000028
Loading
Personal Weather Stations






























Interactive Weather Map New forecast layout! Learn more

10-Day Weather Forecast

Advertisements
Track Severe Weather on mobile